Time;durP1;ratioP1;P1;durP2;ratioP2;P2;SDS_P1;SDS_P2;PMS_P1;PMS_P2;Temp;Humidity;BMP_temperature;BMP_pressure;BME280_temperature;BME280_humidity;BME280_pressure;Samples;Min_cycle;Max_cycle;Signal;HPM_P1;HPM_P2
2023/04/21 00:01:19;;;;;;;21.48;16.13;;;;;;;;;;10097869;28;20102;-68
2023/04/21 00:06:21;;;;;;;22.98;16.75;;;;;;;;;;10094260;28;20057;-68
2023/04/21 00:11:15;;;;;;;17.40;15.60;;;;;;;;;;10087284;28;20048;-68
2023/04/21 00:16:07;;;;;;;20.42;15.93;;;;;;;;;;10074884;28;20045;-68
2023/04/21 00:21:01;;;;;;;18.52;16.25;;;;;;;;;;10083248;28;20053;-69
2023/04/21 00:25:55;;;;;;;22.23;15.10;;;;;;;;;;10072676;28;20518;-69
2023/04/21 00:30:49;;;;;;;21.92;15.32;;;;;;;;;;10074946;28;20048;-68
2023/04/21 00:35:43;;;;;;;19.30;15.63;;;;;;;;;;10069138;28;20046;-69
2023/04/21 00:40:36;;;;;;;18.17;15.30;;;;;;;;;;10087185;28;20558;-68
2023/04/21 00:45:30;;;;;;;18.35;15.63;;;;;;;;;;10055867;28;20049;-68
2023/04/21 00:50:24;;;;;;;19.85;17.52;;;;;;;;;;10073196;28;20060;-68
2023/04/21 00:55:18;;;;;;;19.25;14.82;;;;;;;;;;10097746;28;20037;-68
2023/04/21 01:00:13;;;;;;;17.83;15.90;;;;;;;;;;10091909;28;20049;-68
2023/04/21 01:05:10;;;;;;;18.33;15.18;;;;;;;;;;10081125;28;20374;-68
2023/04/21 01:10:20;;;;;;;19.65;15.32;;;;;;;;;;10068781;28;20061;-68
2023/04/21 01:15:16;;;;;;;17.02;13.85;;;;;;;;;;10071826;28;20045;-68
2023/04/21 01:20:12;;;;;;;17.52;15.25;;;;;;;;;;10080254;28;20140;-68
2023/04/21 01:25:06;;;;;;;15.40;13.80;;;;;;;;;;10087729;28;20441;-68
2023/04/21 01:30:01;;;;;;;18.90;14.07;;;;;;;;;;10089846;28;20041;-68
2023/04/21 01:34:55;;;;;;;17.27;13.13;;;;;;;;;;10098397;28;20099;-68
2023/04/21 01:39:53;;;;;;;15.43;13.75;;;;;;;;;;10085369;28;20042;-68
2023/04/21 01:44:45;;;;;;;19.27;14.90;;;;;;;;;;10088330;28;20045;-68
2023/04/21 01:49:41;;;;;;;15.18;13.57;;;;;;;;;;10100975;28;20053;-67
2023/04/21 01:54:35;;;;;;;17.10;13.23;;;;;;;;;;10114651;28;20079;-68
2023/04/21 01:59:28;;;;;;;18.25;12.40;;;;;;;;;;10101664;28;20703;-68
2023/04/21 02:04:21;;;;;;;14.13;12.68;;;;;;;;;;10083956;28;20128;-68
2023/04/21 02:09:15;;;;;;;14.15;12.68;;;;;;;;;;10095086;28;20049;-68
2023/04/21 02:14:09;;;;;;;13.52;11.73;;;;;;;;;;10113129;28;20048;-67
2023/04/21 02:19:05;;;;;;;14.38;12.13;;;;;;;;;;10098533;28;20059;-68
2023/04/21 02:23:58;;;;;;;17.05;12.32;;;;;;;;;;10090824;28;20076;-68
2023/04/21 02:28:51;;;;;;;14.25;12.77;;;;;;;;;;10115146;28;20124;-67
2023/04/21 02:33:44;;;;;;;14.18;12.77;;;;;;;;;;10108795;28;20502;-68
2023/04/21 02:38:37;;;;;;;14.35;12.90;;;;;;;;;;10090209;28;20528;-67
2023/04/21 02:43:30;;;;;;;14.68;13.18;;;;;;;;;;10091775;28;20087;-67
2023/04/21 02:48:24;;;;;;;15.88;12.50;;;;;;;;;;10087808;28;20053;-67
2023/04/21 02:53:18;;;;;;;13.50;12.10;;;;;;;;;;10068646;28;20400;-68
2023/04/21 02:58:11;;;;;;;14.73;13.00;;;;;;;;;;10054066;28;20099;-68
2023/04/21 03:03:06;;;;;;;14.93;12.18;;;;;;;;;;10068557;28;20073;-68
2023/04/21 03:08:00;;;;;;;14.10;12.70;;;;;;;;;;10073782;28;20500;-67
2023/04/21 03:12:54;;;;;;;14.25;11.88;;;;;;;;;;10050892;28;20125;-67
2023/04/21 03:17:48;;;;;;;15.35;12.30;;;;;;;;;;10049713;28;20548;-67
2023/04/21 03:22:42;;;;;;;17.13;12.70;;;;;;;;;;10074370;28;20038;-68
2023/04/21 03:27:35;;;;;;;14.25;12.15;;;;;;;;;;10063013;28;20396;-67
2023/04/21 03:32:29;;;;;;;13.90;12.45;;;;;;;;;;10081555;28;20415;-68
2023/04/21 03:37:23;;;;;;;13.80;12.40;;;;;;;;;;10072095;28;20050;-67
2023/04/21 03:42:17;;;;;;;12.77;11.27;;;;;;;;;;10073982;28;20076;-67
2023/04/21 03:47:11;;;;;;;15.57;12.20;;;;;;;;;;10085555;28;20053;-67
2023/04/21 03:52:04;;;;;;;13.15;11.77;;;;;;;;;;10096601;28;20068;-67
2023/04/21 03:56:58;;;;;;;14.20;12.80;;;;;;;;;;10112470;28;20476;-67
2023/04/21 04:01:51;;;;;;;18.65;13.60;;;;;;;;;;10107273;28;20151;-67
2023/04/21 04:06:45;;;;;;;14.52;12.68;;;;;;;;;;10119884;28;20056;-67
2023/04/21 04:11:38;;;;;;;17.02;11.82;;;;;;;;;;10100313;28;20132;-67
2023/04/21 04:16:33;;;;;;;17.25;13.00;;;;;;;;;;10112946;28;20049;-67
2023/04/21 04:21:27;;;;;;;16.17;12.55;;;;;;;;;;10118992;28;20403;-67
2023/04/21 04:26:23;;;;;;;14.73;12.73;;;;;;;;;;10133509;28;20452;-67
2023/04/21 04:31:17;;;;;;;15.02;12.00;;;;;;;;;;10108518;28;20380;-67
2023/04/21 04:36:11;;;;;;;12.20;10.75;;;;;;;;;;10128971;28;20041;-67
2023/04/21 04:41:05;;;;;;;14.68;13.18;;;;;;;;;;10138917;28;20052;-67
2023/04/21 04:45:58;;;;;;;15.30;12.65;;;;;;;;;;10149732;28;20472;-67
2023/04/21 04:50:52;;;;;;;15.65;11.95;;;;;;;;;;10150818;28;20416;-67
2023/04/21 04:55:46;;;;;;;14.15;11.20;;;;;;;;;;10150468;28;20066;-67
2023/04/21 05:00:40;;;;;;;15.25;13.13;;;;;;;;;;10142514;28;20059;-67
2023/04/21 05:05:33;;;;;;;14.63;11.82;;;;;;;;;;10140424;28;20609;-67
2023/04/21 05:10:27;;;;;;;23.67;15.73;;;;;;;;;;10139158;28;20135;-67
2023/04/21 05:15:23;;;;;;;17.08;12.60;;;;;;;;;;10137912;28;20126;-69
2023/04/21 05:20:16;;;;;;;14.98;12.48;;;;;;;;;;10124581;28;20056;-68
2023/04/21 05:25:14;;;;;;;15.52;12.00;;;;;;;;;;10135600;28;20071;-67
2023/04/21 05:30:09;;;;;;;14.10;11.53;;;;;;;;;;10133352;28;20540;-67
2023/04/21 05:35:03;;;;;;;14.25;12.57;;;;;;;;;;10130127;28;20076;-68
2023/04/21 05:39:56;;;;;;;26.15;16.20;;;;;;;;;;10129184;28;20102;-67
2023/04/21 05:44:51;;;;;;;22.98;15.20;;;;;;;;;;10138243;28;20064;-68
2023/04/21 05:49:48;;;;;;;22.90;15.18;;;;;;;;;;10148883;28;20110;-68
2023/04/21 05:54:42;;;;;;;25.77;16.48;;;;;;;;;;10145231;28;20052;-68
2023/04/21 05:59:36;;;;;;;23.73;17.45;;;;;;;;;;10146962;28;20529;-68
2023/04/21 06:04:29;;;;;;;25.00;17.40;;;;;;;;;;10160006;28;20054;-69
2023/04/21 06:09:23;;;;;;;27.20;17.67;;;;;;;;;;10153035;28;20075;-68
2023/04/21 06:14:17;;;;;;;26.27;18.10;;;;;;;;;;10147277;28;20111;-69
2023/04/21 06:19:13;;;;;;;30.88;17.80;;;;;;;;;;10099097;28;20079;-68
2023/04/21 06:24:08;;;;;;;24.10;15.75;;;;;;;;;;10108578;28;20071;-68
2023/04/21 06:29:03;;;;;;;25.63;19.98;;;;;;;;;;10133909;28;20044;-69
2023/04/21 06:33:56;;;;;;;33.17;20.25;;;;;;;;;;10158940;28;20744;-68
2023/04/21 06:38:50;;;;;;;30.02;19.55;;;;;;;;;;10140070;28;20565;-69
2023/04/21 06:43:43;;;;;;;27.38;19.33;;;;;;;;;;10123486;28;20454;-66
2023/04/21 06:48:36;;;;;;;31.35;19.60;;;;;;;;;;10087809;28;20049;-67
2023/04/21 06:53:29;;;;;;;28.27;18.55;;;;;;;;;;10092134;28;20050;-67
2023/04/21 06:58:23;;;;;;;32.13;20.92;;;;;;;;;;10085127;28;20506;-67
2023/04/21 07:03:17;;;;;;;32.08;21.20;;;;;;;;;;10077526;28;20052;-67
2023/04/21 07:08:12;;;;;;;35.00;22.50;;;;;;;;;;10084555;28;20067;-67
2023/04/21 07:13:05;;;;;;;39.58;24.65;;;;;;;;;;10077184;28;20049;-67
2023/04/21 07:18:01;;;;;;;37.65;25.67;;;;;;;;;;10077755;28;20046;-67
2023/04/21 07:22:55;;;;;;;44.15;28.55;;;;;;;;;;10074406;28;20041;-67
2023/04/21 07:27:49;;;;;;;44.78;29.75;;;;;;;;;;10081397;28;20053;-67
2023/04/21 07:32:41;;;;;;;42.90;25.13;;;;;;;;;;10083115;28;20460;-69
2023/04/21 07:37:36;;;;;;;35.78;24.15;;;;;;;;;;10089041;28;20140;-66
2023/04/21 07:42:29;;;;;;;39.35;25.20;;;;;;;;;;10078104;28;20049;-66
2023/04/21 07:47:22;;;;;;;40.30;24.65;;;;;;;;;;10088123;28;20459;-66
2023/04/21 07:52:15;;;;;;;36.42;25.15;;;;;;;;;;10124841;28;20499;-66
2023/04/21 07:57:09;;;;;;;37.17;24.98;;;;;;;;;;10129538;28;20064;-66
2023/04/21 08:02:03;;;;;;;35.58;25.35;;;;;;;;;;10128773;28;20044;-66
2023/04/21 08:06:57;;;;;;;36.47;26.90;;;;;;;;;;10142028;28;20135;-68
2023/04/21 08:11:53;;;;;;;33.83;24.98;;;;;;;;;;10125572;28;20057;-68
2023/04/21 08:16:50;;;;;;;39.67;26.63;;;;;;;;;;10117459;28;20062;-69
2023/04/21 08:21:43;;;;;;;35.30;24.90;;;;;;;;;;10134850;28;20057;-68
2023/04/21 08:26:36;;;;;;;37.70;24.55;;;;;;;;;;10125748;28;20076;-66
2023/04/21 08:31:30;;;;;;;35.28;24.67;;;;;;;;;;10116860;28;20056;-66
2023/04/21 08:36:24;;;;;;;34.72;25.13;;;;;;;;;;10114684;28;20116;-68
2023/04/21 08:41:22;;;;;;;35.35;22.45;;;;;;;;;;10118508;28;20122;-66
2023/04/21 08:46:15;;;;;;;31.05;21.55;;;;;;;;;;10123948;28;20053;-66
2023/04/21 08:51:09;;;;;;;28.65;21.13;;;;;;;;;;10079064;28;20459;-66
2023/04/21 08:56:02;;;;;;;29.15;19.25;;;;;;;;;;10084625;28;20489;-66
2023/04/21 09:01:02;;;;;;;24.30;20.23;;;;;;;;;;10089671;28;20511;-66
2023/04/21 09:06:06;;;;;;;27.05;20.65;;;;;;;;;;10081493;28;20052;-67
2023/04/21 09:11:01;;;;;;;24.83;18.10;;;;;;;;;;10087006;28;20050;-68
2023/04/21 09:15:53;;;;;;;23.48;18.70;;;;;;;;;;10096990;28;20060;-66
2023/04/21 09:20:49;;;;;;;21.20;17.55;;;;;;;;;;10086012;28;20059;-66
2023/04/21 09:25:43;;;;;;;23.95;18.02;;;;;;;;;;10089123;28;20560;-66
2023/04/21 09:30:38;;;;;;;25.98;17.92;;;;;;;;;;10101738;28;20099;-66
2023/04/21 09:35:40;;;;;;;18.25;15.23;;;;;;;;;;10084829;28;20125;-66
2023/04/21 09:40:34;;;;;;;16.67;14.88;;;;;;;;;;10055789;28;20577;-66
2023/04/21 09:45:29;;;;;;;20.48;15.23;;;;;;;;;;10082675;28;20120;-65
2023/04/21 09:50:32;;;;;;;16.88;14.35;;;;;;;;;;10120468;28;20053;-66
2023/04/21 09:55:47;;;;;;;19.90;15.13;;;;;;;;;;10120749;28;20083;-66
2023/04/21 10:00:39;;;;;;;21.42;14.60;;;;;;;;;;10099540;28;20135;-66
2023/04/21 10:05:33;;;;;;;18.35;14.30;;;;;;;;;;10117156;28;20114;-66
2023/04/21 10:10:30;;;;;;;16.75;14.80;;;;;;;;;;10128101;28;20392;-66
2023/04/21 10:15:43;;;;;;;15.93;13.82;;;;;;;;;;10112277;28;20131;-67
2023/04/21 10:21:18;;;;;;;13.95;12.43;;;;;;;;;;10122208;28;20106;-66
2023/04/21 10:26:28;;;;;;;16.45;14.60;;;;;;;;;;10097653;28;20083;-68
2023/04/21 10:31:28;;;;;;;14.38;12.40;;;;;;;;;;10130910;28;20070;-66
2023/04/21 10:36:24;;;;;;;16.02;13.75;;;;;;;;;;10119563;28;20423;-67
2023/04/21 10:41:31;;;;;;;15.73;12.57;;;;;;;;;;10126113;28;20053;-66
2023/04/21 10:46:34;;;;;;;15.05;12.02;;;;;;;;;;10134906;28;20049;-66
2023/04/21 10:52:05;;;;;;;17.42;14.15;;;;;;;;;;10125931;28;20139;-66
2023/04/21 10:57:00;;;;;;;10.57;8.98;;;;;;;;;;10056028;28;20048;-66
2023/04/21 11:01:54;;;;;;;10.85;9.75;;;;;;;;;;10114612;28;20051;-67
2023/04/21 11:07:13;;;;;;;14.70;11.02;;;;;;;;;;10119043;28;20053;-67
2023/04/21 11:12:16;;;;;;;12.43;11.13;;;;;;;;;;10138366;28;20095;-67
2023/04/21 11:17:12;;;;;;;11.68;10.45;;;;;;;;;;10126389;28;20132;-70
2023/04/21 11:22:05;;;;;;;12.32;11.00;;;;;;;;;;10120297;28;20059;-66
2023/04/21 11:27:00;;;;;;;11.43;9.57;;;;;;;;;;10114069;28;20106;-66
2023/04/21 11:31:55;;;;;;;12.73;11.48;;;;;;;;;;10121841;28;20056;-67
2023/04/21 11:36:49;;;;;;;10.55;9.23;;;;;;;;;;10111322;28;20474;-67
2023/04/21 11:41:44;;;;;;;9.38;8.35;;;;;;;;;;10112107;28;20052;-67
2023/04/21 11:46:38;;;;;;;12.50;11.20;;;;;;;;;;10134496;28;20048;-67
2023/04/21 11:51:42;;;;;;;13.40;11.20;;;;;;;;;;10103206;28;20048;-67
2023/04/21 11:56:40;;;;;;;10.50;9.50;;;;;;;;;;10152795;28;20480;-67
2023/04/21 12:01:33;;;;;;;9.48;8.48;;;;;;;;;;10150977;28;20045;-68
2023/04/21 12:06:30;;;;;;;7.53;6.82;;;;;;;;;;10155717;28;20056;-67
2023/04/21 12:11:24;;;;;;;7.37;6.63;;;;;;;;;;10152665;28;20059;-67
2023/04/21 12:16:19;;;;;;;35.83;28.05;;;;;;;;;;10124933;28;20294;-67
2023/04/21 12:21:15;;;;;;;73.57;64.47;;;;;;;;;;10145497;28;20061;-67
2023/04/21 12:26:09;;;;;;;6.57;5.95;;;;;;;;;;10143235;28;20044;-71
2023/04/21 12:31:02;;;;;;;6.38;4.80;;;;;;;;;;10119830;28;20505;-68
2023/04/21 12:35:56;;;;;;;6.43;5.80;;;;;;;;;;10131169;28;20068;-67
2023/04/21 12:40:49;;;;;;;7.32;6.30;;;;;;;;;;10118146;28;20051;-68
2023/04/21 12:45:44;;;;;;;9.57;6.50;;;;;;;;;;10120522;28;20136;-68
2023/04/21 12:50:39;;;;;;;7.72;6.93;;;;;;;;;;10136000;28;20052;-67
2023/04/21 12:55:36;;;;;;;7.32;6.63;;;;;;;;;;10137002;28;20053;-68
2023/04/21 13:00:42;;;;;;;9.00;7.18;;;;;;;;;;10139608;28;20062;-68
2023/04/21 13:05:34;;;;;;;7.97;7.18;;;;;;;;;;10136313;28;20068;-67
2023/04/21 13:10:28;;;;;;;5.72;5.18;;;;;;;;;;10137163;28;20121;-67
2023/04/21 13:15:21;;;;;;;6.80;6.10;;;;;;;;;;10133338;28;20041;-68
2023/04/21 13:20:17;;;;;;;7.38;5.50;;;;;;;;;;10136194;28;20049;-68
2023/04/21 13:25:11;;;;;;;8.23;5.80;;;;;;;;;;10138066;28;20529;-67
2023/04/21 13:30:09;;;;;;;8.57;6.70;;;;;;;;;;10130149;28;20063;-68
2023/04/21 13:35:07;;;;;;;7.22;5.20;;;;;;;;;;10144659;28;20124;-68
2023/04/21 13:40:01;;;;;;;6.35;5.70;;;;;;;;;;10138906;28;20166;-70
2023/04/21 13:44:55;;;;;;;7.38;6.55;;;;;;;;;;10132473;28;20044;-68
2023/04/21 13:49:50;;;;;;;6.28;5.57;;;;;;;;;;10133789;28;20056;-68
2023/04/21 13:54:44;;;;;;;8.30;6.63;;;;;;;;;;10141353;28;20123;-68
2023/04/21 13:59:37;;;;;;;8.75;7.22;;;;;;;;;;10154294;28;20048;-69
2023/04/21 14:04:31;;;;;;;8.00;6.32;;;;;;;;;;10138376;28;20098;-68
2023/04/21 14:09:24;;;;;;;7.10;6.47;;;;;;;;;;10140871;28;20056;-70
2023/04/21 14:14:18;;;;;;;8.25;7.47;;;;;;;;;;10139308;28;20045;-69
2023/04/21 14:19:30;;;;;;;8.35;7.43;;;;;;;;;;10120888;28;20048;-68
2023/04/21 14:24:29;;;;;;;7.65;6.95;;;;;;;;;;10101165;28;20040;-66
2023/04/21 14:29:21;;;;;;;10.60;8.23;;;;;;;;;;10124898;28;20404;-69
2023/04/21 14:34:15;;;;;;;8.00;6.78;;;;;;;;;;10127139;28;20044;-67
2023/04/21 14:39:14;;;;;;;10.95;7.53;;;;;;;;;;10118030;28;20045;-67
2023/04/21 14:44:08;;;;;;;9.30;7.70;;;;;;;;;;10125691;28;20081;-67
2023/04/21 14:49:02;;;;;;;8.63;7.78;;;;;;;;;;10095534;28;20126;-68
2023/04/21 14:53:56;;;;;;;9.45;8.45;;;;;;;;;;10060713;28;20049;-68
2023/04/21 14:58:50;;;;;;;8.95;8.05;;;;;;;;;;10077663;28;20120;-68
2023/04/21 15:03:44;;;;;;;10.18;9.13;;;;;;;;;;10081576;28;20408;-67
2023/04/21 15:08:39;;;;;;;9.45;8.55;;;;;;;;;;10084385;28;20072;-69
2023/04/21 15:13:32;;;;;;;9.93;8.38;;;;;;;;;;10079475;28;20409;-68
2023/04/21 15:18:26;;;;;;;8.82;8.05;;;;;;;;;;10068747;28;20069;-68
2023/04/21 15:23:20;;;;;;;11.07;9.05;;;;;;;;;;10082146;28;20064;-68
2023/04/21 15:28:14;;;;;;;9.20;8.30;;;;;;;;;;10074022;28;20056;-66
2023/04/21 15:33:08;;;;;;;9.18;8.27;;;;;;;;;;10070203;28;20124;-65
2023/04/21 15:38:02;;;;;;;9.90;8.57;;;;;;;;;;10078890;28;20072;-66
2023/04/21 15:42:55;;;;;;;7.72;5.97;;;;;;;;;;10054413;28;20042;-66
2023/04/21 15:47:48;;;;;;;8.98;6.18;;;;;;;;;;10080522;28;20412;-66
2023/04/21 15:52:42;;;;;;;5.35;4.72;;;;;;;;;;10102992;28;20187;-67
2023/04/21 15:57:35;;;;;;;5.15;4.60;;;;;;;;;;10070043;28;20492;-66
2023/04/21 16:02:28;;;;;;;5.70;4.20;;;;;;;;;;10068052;28;20085;-66
2023/04/21 16:07:22;;;;;;;7.00;3.70;;;;;;;;;;10089574;28;20037;-66
2023/04/21 16:12:17;;;;;;;4.72;3.70;;;;;;;;;;10082804;28;20041;-66
2023/04/21 16:17:12;;;;;;;4.20;3.80;;;;;;;;;;10082975;28;20068;-66
2023/04/21 16:22:05;;;;;;;5.90;3.97;;;;;;;;;;10081435;28;20496;-66
2023/04/21 16:26:59;;;;;;;6.97;4.28;;;;;;;;;;10097456;28;20162;-66
2023/04/21 16:31:52;;;;;;;5.68;3.65;;;;;;;;;;10092082;28;20403;-68
2023/04/21 16:36:46;;;;;;;4.75;4.10;;;;;;;;;;10075001;28;20072;-68
2023/04/21 16:41:40;;;;;;;4.78;3.70;;;;;;;;;;10080750;28;20123;-68
2023/04/21 16:46:34;;;;;;;5.05;4.55;;;;;;;;;;10090170;28;20495;-68
2023/04/21 16:51:29;;;;;;;7.57;5.28;;;;;;;;;;10152013;28;20048;-69
2023/04/21 16:56:22;;;;;;;7.82;5.88;;;;;;;;;;10135655;28;20099;-69
2023/04/21 17:01:16;;;;;;;7.38;6.57;;;;;;;;;;10112283;28;20071;-69
2023/04/21 17:06:09;;;;;;;10.05;7.00;;;;;;;;;;10138214;28;20047;-67
2023/04/21 17:11:04;;;;;;;8.80;7.03;;;;;;;;;;10140813;28;20044;-69
2023/04/21 17:15:57;;;;;;;7.95;7.15;;;;;;;;;;10138859;28;20068;-68
2023/04/21 17:20:50;;;;;;;8.55;7.75;;;;;;;;;;10140286;28;20055;-68
2023/04/21 17:25:44;;;;;;;9.48;8.57;;;;;;;;;;10147046;28;20072;-72
2023/04/21 17:30:37;;;;;;;9.00;7.00;;;;;;;;;;10126402;28;20116;-69
2023/04/21 17:35:31;;;;;;;7.90;7.10;;;;;;;;;;10129484;28;20052;-66
2023/04/21 17:40:25;;;;;;;8.70;7.85;;;;;;;;;;10139336;28;20076;-68
2023/04/21 17:45:20;;;;;;;12.88;7.50;;;;;;;;;;10141676;28;20091;-67
2023/04/21 17:50:17;;;;;;;8.40;7.05;;;;;;;;;;10131029;28;20052;-68
2023/04/21 17:55:12;;;;;;;9.18;7.10;;;;;;;;;;10126043;28;20090;-69
2023/04/21 18:00:07;;;;;;;8.90;8.02;;;;;;;;;;10143718;28;20484;-68
2023/04/21 18:05:00;;;;;;;9.35;8.32;;;;;;;;;;10136175;28;20041;-69
2023/04/21 18:09:55;;;;;;;9.10;8.20;;;;;;;;;;10107382;28;20048;-69
2023/04/21 18:14:50;;;;;;;13.35;12.15;;;;;;;;;;10141044;28;20515;-68
2023/04/21 18:19:44;;;;;;;8.68;7.80;;;;;;;;;;10136501;28;20507;-69
2023/04/21 18:24:37;;;;;;;10.77;9.30;;;;;;;;;;10113161;28;20044;-67
2023/04/21 18:29:32;;;;;;;10.43;8.70;;;;;;;;;;10125624;28;20073;-68
2023/04/21 18:34:26;;;;;;;9.65;8.70;;;;;;;;;;10125885;28;20052;-68
2023/04/21 18:39:19;;;;;;;12.35;9.75;;;;;;;;;;10128472;28;20052;-71
2023/04/21 18:44:16;;;;;;;10.02;8.98;;;;;;;;;;10142400;28;20415;-66
2023/04/21 18:49:09;;;;;;;11.50;9.30;;;;;;;;;;10117983;28;20056;-70
2023/04/21 18:54:03;;;;;;;13.52;9.45;;;;;;;;;;10117085;28;20617;-70
2023/04/21 18:58:56;;;;;;;10.10;9.10;;;;;;;;;;10129891;28;20372;-77
2023/04/21 19:03:50;;;;;;;13.02;10.45;;;;;;;;;;10128080;28;20453;-67
2023/04/21 19:08:43;;;;;;;12.00;9.45;;;;;;;;;;10138830;28;20055;-71
2023/04/21 19:13:36;;;;;;;14.25;10.75;;;;;;;;;;10124935;28;20163;-70
2023/04/21 19:18:30;;;;;;;11.60;10.45;;;;;;;;;;10124765;28;20048;-70
2023/04/21 19:23:23;;;;;;;13.38;9.88;;;;;;;;;;10124316;28;20044;-70
2023/04/21 19:28:16;;;;;;;11.82;10.63;;;;;;;;;;10124037;28;20049;-68
2023/04/21 19:33:10;;;;;;;16.63;13.35;;;;;;;;;;10125057;28;20048;-72
2023/04/21 19:38:04;;;;;;;13.00;11.75;;;;;;;;;;10124582;28;20053;-72
2023/04/21 19:42:59;;;;;;;12.93;10.98;;;;;;;;;;10125752;28;20056;-72
2023/04/21 19:47:52;;;;;;;14.23;11.38;;;;;;;;;;10120771;28;20109;-73
2023/04/21 19:52:46;;;;;;;19.25;11.75;;;;;;;;;;10097976;28;20045;-70
2023/04/21 19:57:40;;;;;;;14.50;13.00;;;;;;;;;;10105701;28;20040;-72
2023/04/21 20:02:34;;;;;;;13.93;12.18;;;;;;;;;;10110090;28;20132;-70
2023/04/21 20:07:31;;;;;;;14.73;13.20;;;;;;;;;;10098958;28;20075;-68
2023/04/21 20:12:27;;;;;;;14.98;12.82;;;;;;;;;;10113766;28;20052;-69
2023/04/21 20:17:21;;;;;;;21.58;14.30;;;;;;;;;;10106157;28;20044;-71
2023/04/21 20:22:15;;;;;;;14.52;11.90;;;;;;;;;;10106955;28;20194;-69
2023/04/21 20:27:09;;;;;;;17.02;11.40;;;;;;;;;;10106702;28;20048;-68
2023/04/21 20:32:03;;;;;;;14.10;12.20;;;;;;;;;;10098360;28;20060;-67
2023/04/21 20:36:57;;;;;;;15.05;10.80;;;;;;;;;;10115833;28;20045;-65
2023/04/21 20:41:51;;;;;;;12.43;10.35;;;;;;;;;;10111550;28;20055;-65
2023/04/21 20:47:01;;;;;;;14.15;11.20;;;;;;;;;;10120478;28;20087;-65
2023/04/21 20:51:59;;;;;;;11.15;9.88;;;;;;;;;;10138031;28;20442;-64
2023/04/21 20:56:55;;;;;;;13.27;11.35;;;;;;;;;;10149905;28;20057;-65
2023/04/21 21:01:49;;;;;;;14.27;11.23;;;;;;;;;;10119614;28;20048;-63
2023/04/21 21:06:43;;;;;;;13.23;10.68;;;;;;;;;;10136429;28;20462;-64
2023/04/21 21:11:36;;;;;;;14.77;12.57;;;;;;;;;;10142403;28;20559;-66
2023/04/21 21:16:30;;;;;;;16.88;12.60;;;;;;;;;;10140225;28;20460;-67
2023/04/21 21:21:25;;;;;;;17.92;12.88;;;;;;;;;;10144816;28;20072;-68
2023/04/21 21:26:18;;;;;;;23.38;15.32;;;;;;;;;;10140753;28;20036;-67
2023/04/21 21:31:13;;;;;;;14.23;12.75;;;;;;;;;;10109774;28;20658;-68
2023/04/21 21:36:07;;;;;;;19.40;12.85;;;;;;;;;;10146847;28;20084;-68
2023/04/21 21:41:02;;;;;;;14.38;11.13;;;;;;;;;;10151996;28;20046;-68
2023/04/21 21:45:56;;;;;;;15.05;11.48;;;;;;;;;;10048821;28;2896437;-68
2023/04/21 21:50:49;;;;;;;15.35;12.10;;;;;;;;;;10158764;28;20048;-68
2023/04/21 21:55:51;;;;;;;17.45;15.52;;;;;;;;;;10150003;28;20547;-66
2023/04/21 22:00:54;;;;;;;16.90;14.27;;;;;;;;;;10146737;28;20078;-68
2023/04/21 22:05:47;;;;;;;21.13;13.68;;;;;;;;;;10154984;28;20094;-67
2023/04/21 22:10:44;;;;;;;16.38;12.73;;;;;;;;;;10150788;28;20041;-68
2023/04/21 22:15:38;;;;;;;16.65;13.48;;;;;;;;;;10157540;28;20082;-68
2023/04/21 22:20:33;;;;;;;15.52;12.55;;;;;;;;;;10137942;28;20465;-68
2023/04/21 22:25:27;;;;;;;13.48;11.82;;;;;;;;;;10145107;28;20062;-68
2023/04/21 22:30:20;;;;;;;12.38;11.10;;;;;;;;;;10138595;28;20498;-67
2023/04/21 22:35:13;;;;;;;15.20;12.38;;;;;;;;;;10139326;28;20403;-67
2023/04/21 22:40:10;;;;;;;17.58;14.00;;;;;;;;;;10140481;28;20072;-67
2023/04/21 22:45:05;;;;;;;16.30;14.45;;;;;;;;;;10154710;28;20107;-67
2023/04/21 22:49:58;;;;;;;17.73;14.93;;;;;;;;;;10156816;28;20060;-67
2023/04/21 22:54:52;;;;;;;16.98;14.02;;;;;;;;;;10148905;28;20466;-67
2023/04/21 22:59:45;;;;;;;17.23;14.02;;;;;;;;;;10157090;28;20041;-67
2023/04/21 23:04:38;;;;;;;18.23;14.40;;;;;;;;;;10141894;28;20108;-67
2023/04/21 23:09:32;;;;;;;17.02;14.25;;;;;;;;;;10125470;28;20076;-68
2023/04/21 23:14:25;;;;;;;18.05;14.52;;;;;;;;;;10118902;28;20056;-67
2023/04/21 23:19:18;;;;;;;15.98;14.30;;;;;;;;;;10127372;28;20055;-67
2023/04/21 23:24:10;;;;;;;14.85;12.85;;;;;;;;;;10114363;28;20045;-67
2023/04/21 23:29:04;;;;;;;13.77;12.27;;;;;;;;;;10118996;28;20152;-67
2023/04/21 23:33:59;;;;;;;16.73;12.23;;;;;;;;;;10130087;28;20060;-67
2023/04/21 23:38:52;;;;;;;15.75;11.50;;;;;;;;;;10111985;28;20049;-67
2023/04/21 23:43:46;;;;;;;19.50;13.25;;;;;;;;;;10118664;28;20059;-67
2023/04/21 23:48:39;;;;;;;14.32;11.85;;;;;;;;;;10122783;28;20076;-67
2023/04/21 23:53:32;;;;;;;18.98;13.00;;;;;;;;;;10128502;28;20053;-67
2023/04/21 23:58:25;;;;;;;16.40;13.60;;;;;;;;;;10120890;28;20487;-68
